Time;durP1;ratioP1;P1;durP2;ratioP2;P2;SDS_P1;SDS_P2;PMS_P1;PMS_P2;Temp;Humidity;BMP_temperature;BMP_pressure;BME280_temperature;BME280_humidity;BME280_pressure;Samples;Min_cycle;Max_cycle;Signal;HPM_P1;HPM_P2
2022/07/26 00:01:04;;;;;;;8.57;2.63;;;21.50;60.90;;;;;;5052502;28;20390;-69
2022/07/26 00:03:30;;;;;;;11.38;3.33;;;21.50;60.90;;;;;;5052262;28;20041;-68
2022/07/26 00:05:57;;;;;;;10.70;2.70;;;21.50;60.80;;;;;;5052686;28;20429;-68
2022/07/26 00:08:22;;;;;;;7.65;2.10;;;21.50;60.90;;;;;;5052600;28;20398;-68
2022/07/26 00:10:50;;;;;;;10.60;3.10;;;21.40;60.70;;;;;;5053454;28;20037;-68
2022/07/26 00:13:18;;;;;;;12.23;3.25;;;21.40;60.70;;;;;;5052217;28;20068;-68
2022/07/26 00:15:46;;;;;;;8.25;2.85;;;21.50;60.80;;;;;;5053436;28;20047;-68
2022/07/26 00:18:13;;;;;;;6.97;2.50;;;21.50;60.50;;;;;;5052200;28;20550;-68
2022/07/26 00:20:39;;;;;;;8.13;2.78;;;21.50;60.50;;;;;;5035606;28;20114;-69
2022/07/26 00:23:05;;;;;;;8.30;2.60;;;21.50;60.40;;;;;;5052027;28;20498;-64
2022/07/26 00:25:31;;;;;;;9.65;2.17;;;21.50;60.20;;;;;;5052195;28;20099;-64
2022/07/26 00:27:56;;;;;;;8.88;2.55;;;21.50;60.20;;;;;;5053101;28;20398;-64
2022/07/26 00:30:22;;;;;;;9.57;2.65;;;21.50;60.10;;;;;;5053096;28;20033;-64
2022/07/26 00:32:48;;;;;;;9.30;2.55;;;21.40;59.90;;;;;;5051859;28;20044;-64
2022/07/26 00:35:14;;;;;;;8.95;2.65;;;21.40;59.80;;;;;;5051987;28;20048;-65
2022/07/26 00:37:40;;;;;;;9.13;2.20;;;21.40;59.70;;;;;;5051691;28;20403;-65
2022/07/26 00:40:07;;;;;;;6.47;2.13;;;21.40;59.60;;;;;;5052969;28;20134;-65
2022/07/26 00:42:32;;;;;;;6.72;2.42;;;21.40;59.50;;;;;;5051694;28;20040;-65
2022/07/26 00:44:58;;;;;;;6.68;2.08;;;21.40;59.50;;;;;;5068413;28;20040;-65
2022/07/26 00:47:24;;;;;;;6.35;1.75;;;21.40;59.50;;;;;;5051903;28;20076;-65
2022/07/26 00:49:50;;;;;;;9.38;2.20;;;21.40;59.40;;;;;;5051526;28;20504;-65
2022/07/26 00:52:16;;;;;;;4.68;1.40;;;21.30;59.30;;;;;;5052811;28;20047;-65
2022/07/26 00:54:44;;;;;;;3.63;1.50;;;21.30;59.20;;;;;;5051618;28;20051;-65
2022/07/26 00:57:11;;;;;;;4.60;1.60;;;21.30;59.10;;;;;;5051606;28;20049;-65
2022/07/26 00:59:37;;;;;;;7.25;2.05;;;21.30;59.10;;;;;;5052747;28;20423;-65
2022/07/26 01:02:05;;;;;;;8.15;2.90;;;21.30;59.10;;;;;;5052804;28;20125;-65
2022/07/26 01:04:31;;;;;;;4.53;1.50;;;21.30;59.10;;;;;;5052551;28;20088;-67
2022/07/26 01:06:58;;;;;;;5.05;1.50;;;21.20;59.00;;;;;;5051442;28;20128;-67
2022/07/26 01:09:23;;;;;;;8.50;2.30;;;21.20;59.00;;;;;;5052840;28;20070;-69
2022/07/26 01:11:50;;;;;;;6.88;1.58;;;21.20;58.90;;;;;;5068401;28;20029;-68
2022/07/26 01:14:20;;;;;;;5.20;1.58;;;21.20;58.90;;;;;;5050835;28;20562;-68
2022/07/26 01:16:46;;;;;;;4.80;1.40;;;21.20;59.00;;;;;;5051275;28;20080;-68
2022/07/26 01:19:11;;;;;;;5.63;1.70;;;21.10;58.90;;;;;;5051257;28;20072;-64
2022/07/26 01:21:37;;;;;;;4.78;1.40;;;21.10;58.90;;;;;;5052583;28;20033;-64
2022/07/26 01:24:03;;;;;;;3.47;1.40;;;21.10;58.90;;;;;;5052584;28;20493;-64
2022/07/26 01:26:29;;;;;;;2.85;1.23;;;21.10;58.90;;;;;;5051139;28;20111;-64
2022/07/26 01:28:54;;;;;;;3.30;1.50;;;21.10;59.00;;;;;;5051188;28;20123;-64
2022/07/26 01:31:20;;;;;;;5.97;1.85;;;21.10;59.40;;;;;;5051106;28;20052;-65
2022/07/26 01:33:47;;;;;;;3.47;1.20;;;21.10;59.10;;;;;;5051045;28;20052;-65
2022/07/26 01:36:12;;;;;;;4.78;1.52;;;21.00;59.10;;;;;;5052391;28;20052;-63
2022/07/26 01:38:42;;;;;;;2.78;1.15;;;21.00;59.20;;;;;;5051050;28;20402;-64
2022/07/26 01:41:08;;;;;;;5.25;1.50;;;20.90;59.20;;;;;;5051100;28;20171;-64
2022/07/26 01:43:35;;;;;;;4.82;1.35;;;20.90;59.20;;;;;;5051047;28;20039;-64
2022/07/26 01:46:01;;;;;;;4.90;1.50;;;20.90;59.30;;;;;;5052272;28;20073;-64
2022/07/26 01:48:27;;;;;;;4.47;1.65;;;20.90;59.50;;;;;;5050858;28;20044;-64
2022/07/26 01:50:53;;;;;;;4.93;1.92;;;20.80;59.60;;;;;;5050960;28;20044;-64
2022/07/26 01:53:18;;;;;;;6.55;1.42;;;20.90;59.60;;;;;;5050905;28;20048;-64
2022/07/26 01:55:44;;;;;;;3.70;1.30;;;20.80;59.50;;;;;;5050889;28;20041;-64
2022/07/26 01:58:10;;;;;;;3.15;1.10;;;20.80;59.60;;;;;;5050969;28;20045;-64
2022/07/26 02:00:35;;;;;;;3.42;1.27;;;20.80;59.70;;;;;;5034519;28;20545;-64
2022/07/26 02:03:01;;;;;;;2.83;1.30;;;20.80;59.70;;;;;;5050794;28;20397;-64
2022/07/26 02:05:27;;;;;;;3.65;1.35;;;20.70;59.70;;;;;;5051751;28;20068;-64
2022/07/26 02:07:52;;;;;;;3.40;1.10;;;20.70;59.70;;;;;;5051086;28;20045;-64
2022/07/26 02:10:18;;;;;;;4.13;1.42;;;20.70;59.80;;;;;;5050761;28;20487;-64
2022/07/26 02:12:44;;;;;;;6.18;1.73;;;20.70;59.80;;;;;;5051046;28;20044;-68
2022/07/26 02:15:11;;;;;;;3.00;1.40;;;20.70;60.10;;;;;;5050973;28;20072;-68
2022/07/26 02:17:37;;;;;;;4.22;1.52;;;20.70;60.20;;;;;;5052177;28;20084;-64
2022/07/26 02:20:05;;;;;;;4.30;1.40;;;20.70;60.20;;;;;;5050744;28;20073;-64
2022/07/26 02:22:30;;;;;;;3.83;1.30;;;20.70;60.20;;;;;;5050729;28;20049;-64
2022/07/26 02:24:56;;;;;;;3.00;1.30;;;20.70;60.20;;;;;;5053027;28;20037;-64
2022/07/26 02:27:21;;;;;;;3.22;1.20;;;20.60;60.30;;;;;;5055538;28;20473;-64
2022/07/26 02:29:47;;;;;;;3.20;1.48;;;20.60;60.50;;;;;;5055338;28;20041;-64
2022/07/26 02:32:13;;;;;;;4.80;1.70;;;20.60;60.70;;;;;;5055431;28;20084;-64
2022/07/26 02:34:39;;;;;;;4.13;1.40;;;20.60;60.70;;;;;;5054359;28;20474;-64
2022/07/26 02:37:05;;;;;;;5.68;1.80;;;20.60;60.70;;;;;;5053960;28;20488;-67
2022/07/26 02:39:30;;;;;;;2.97;1.23;;;20.50;61.10;;;;;;5054022;28;20037;-70
2022/07/26 02:41:58;;;;;;;4.30;1.50;;;20.50;61.10;;;;;;5053910;28;20489;-68
2022/07/26 02:44:25;;;;;;;4.07;1.50;;;20.60;61.30;;;;;;5053896;28;20047;-68
2022/07/26 02:46:52;;;;;;;3.00;1.23;;;20.50;61.80;;;;;;5053911;28;20041;-68
2022/07/26 02:49:18;;;;;;;4.10;1.55;;;20.50;61.30;;;;;;5053680;28;20045;-68
2022/07/26 02:51:44;;;;;;;4.70;1.80;;;20.50;61.90;;;;;;5053731;28;20043;-64
2022/07/26 02:54:10;;;;;;;2.83;1.67;;;20.50;61.50;;;;;;5054927;28;20040;-64
2022/07/26 02:56:36;;;;;;;2.33;1.33;;;20.50;61.50;;;;;;5020874;28;20071;-64
2022/07/26 02:59:03;;;;;;;3.55;1.92;;;20.50;61.50;;;;;;5053495;28;20033;-64
2022/07/26 03:01:28;;;;;;;5.68;1.77;;;20.50;61.90;;;;;;5054736;28;20482;-64
2022/07/26 03:03:54;;;;;;;4.53;2.15;;;20.50;62.00;;;;;;5053694;28;20098;-68
2022/07/26 03:06:20;;;;;;;3.75;2.20;;;20.40;62.20;;;;;;5036903;28;20500;-68
2022/07/26 03:08:47;;;;;;;6.38;2.20;;;20.40;62.40;;;;;;5053445;28;20094;-68
2022/07/26 03:11:13;;;;;;;2.47;1.60;;;20.40;62.90;;;;;;5053454;28;20040;-68
2022/07/26 03:13:38;;;;;;;6.25;2.28;;;20.40;63.10;;;;;;5054582;28;20048;-68
2022/07/26 03:16:05;;;;;;;5.70;1.80;;;20.40;63.50;;;;;;5053281;28;20045;-68
2022/07/26 03:18:31;;;;;;;4.50;1.83;;;20.40;63.80;;;;;;5053465;28;20120;-68
2022/07/26 03:20:57;;;;;;;7.72;2.42;;;20.30;63.80;;;;;;5053277;28;20116;-68
2022/07/26 03:23:22;;;;;;;3.55;1.52;;;20.20;63.90;;;;;;5053243;28;20056;-68
2022/07/26 03:25:48;;;;;;;4.55;1.55;;;20.20;64.20;;;;;;5054406;28;20037;-64
2022/07/26 03:28:14;;;;;;;3.55;1.30;;;20.20;64.30;;;;;;5053385;28;20079;-63
2022/07/26 03:30:39;;;;;;;3.63;1.40;;;20.10;64.30;;;;;;5053013;28;20052;-63
2022/07/26 03:33:05;;;;;;;3.13;1.27;;;20.10;64.20;;;;;;5054404;28;20045;-64
2022/07/26 03:35:31;;;;;;;4.80;1.42;;;20.10;64.30;;;;;;5052440;28;20394;-63
2022/07/26 03:37:56;;;;;;;3.03;1.02;;;20.10;64.30;;;;;;5036199;28;20228;-63
2022/07/26 03:40:22;;;;;;;4.20;1.48;;;20.00;64.40;;;;;;5052878;28;20041;-63
2022/07/26 03:42:48;;;;;;;2.78;1.15;;;20.00;64.50;;;;;;5054018;28;20139;-63
2022/07/26 03:45:14;;;;;;;4.13;1.38;;;20.00;64.60;;;;;;5054006;28;20045;-63
2022/07/26 03:47:41;;;;;;;3.17;1.63;;;20.00;64.70;;;;;;5053002;28;20045;-64
2022/07/26 03:50:08;;;;;;;3.58;1.45;;;20.00;64.60;;;;;;5052564;28;20037;-63
2022/07/26 03:52:33;;;;;;;4.00;1.50;;;20.00;64.80;;;;;;5052823;28;20045;-63
2022/07/26 03:54:59;;;;;;;2.30;1.08;;;20.00;64.70;;;;;;5053810;28;20045;-63
2022/07/26 03:57:25;;;;;;;3.33;1.10;;;20.00;64.70;;;;;;5052389;28;20049;-63
2022/07/26 03:59:50;;;;;;;4.32;1.58;;;20.00;64.70;;;;;;5069058;28;20045;-63
2022/07/26 04:02:16;;;;;;;2.17;1.20;;;20.00;64.80;;;;;;5052280;28;20051;-63
2022/07/26 04:04:42;;;;;;;3.53;1.35;;;19.90;64.70;;;;;;5052114;28;20057;-63
2022/07/26 04:07:09;;;;;;;4.45;1.65;;;19.90;64.80;;;;;;5053597;28;20371;-63
2022/07/26 04:09:34;;;;;;;4.43;1.38;;;19.90;64.70;;;;;;5052304;28;20049;-63
2022/07/26 04:12:00;;;;;;;4.60;1.55;;;19.90;64.70;;;;;;5053365;28;20044;-63
2022/07/26 04:14:26;;;;;;;3.90;1.30;;;19.90;64.70;;;;;;5053626;28;20068;-63
2022/07/26 04:16:51;;;;;;;3.22;1.38;;;19.90;64.70;;;;;;5052257;28;20049;-63
2022/07/26 04:19:17;;;;;;;3.75;1.55;;;19.90;64.90;;;;;;5053362;28;20082;-63
2022/07/26 04:21:43;;;;;;;3.85;1.58;;;19.90;65.00;;;;;;5053221;28;20387;-63
2022/07/26 04:24:08;;;;;;;5.88;1.70;;;19.90;64.90;;;;;;5051929;28;20049;-64
2022/07/26 04:26:34;;;;;;;5.45;1.48;;;19.90;65.10;;;;;;5051886;28;20130;-67
2022/07/26 04:29:00;;;;;;;4.13;1.40;;;19.90;65.10;;;;;;5053382;28;20076;-67
2022/07/26 04:31:25;;;;;;;5.38;1.30;;;19.90;64.90;;;;;;5051887;28;20072;-67
2022/07/26 04:33:51;;;;;;;3.42;1.30;;;19.90;65.00;;;;;;5053095;28;20041;-67
2022/07/26 04:36:17;;;;;;;5.80;1.40;;;19.90;65.00;;;;;;5051695;28;20532;-67
2022/07/26 04:38:43;;;;;;;4.75;1.08;;;19.80;64.80;;;;;;5051693;28;20053;-67
2022/07/26 04:41:09;;;;;;;3.40;1.27;;;19.80;64.80;;;;;;5051707;28;20375;-68
2022/07/26 04:43:37;;;;;;;3.70;0.90;;;19.80;64.60;;;;;;5051908;28;20465;-67
2022/07/26 04:46:03;;;;;;;5.25;1.20;;;19.80;64.60;;;;;;5052932;28;20076;-67
2022/07/26 04:48:28;;;;;;;5.68;1.35;;;19.80;64.80;;;;;;5050963;28;20048;-69
2022/07/26 04:50:54;;;;;;;7.03;1.50;;;19.80;64.90;;;;;;5051664;28;20064;-67
2022/07/26 04:53:20;;;;;;;5.25;1.60;;;19.80;65.00;;;;;;5053233;28;20044;-68
2022/07/26 04:55:46;;;;;;;5.03;1.17;;;19.80;65.10;;;;;;5051692;28;20099;-68
2022/07/26 04:58:12;;;;;;;3.33;1.30;;;19.80;65.50;;;;;;5051391;28;20052;-68
2022/07/26 05:00:38;;;;;;;3.45;1.00;;;19.80;65.10;;;;;;5051796;28;20037;-68
2022/07/26 05:03:04;;;;;;;3.25;1.05;;;19.80;65.10;;;;;;5051531;28;20089;-69
2022/07/26 05:05:31;;;;;;;4.90;1.42;;;19.80;65.10;;;;;;5052485;28;20060;-68
2022/07/26 05:07:59;;;;;;;4.50;1.20;;;19.80;65.10;;;;;;5052671;28;20052;-68
2022/07/26 05:10:34;;;;;;;3.55;0.95;;;19.80;65.00;;;;;;5051309;28;20052;-68
2022/07/26 05:13:02;;;;;;;3.20;1.10;;;19.80;64.90;;;;;;5034797;28;20037;-68
2022/07/26 05:15:29;;;;;;;4.75;1.48;;;19.90;65.10;;;;;;5051369;28;20048;-68
2022/07/26 05:17:56;;;;;;;3.40;0.90;;;19.90;65.10;;;;;;5051392;28;20063;-69
2022/07/26 05:20:23;;;;;;;4.25;0.80;;;19.90;65.00;;;;;;5052572;28;20036;-68
2022/07/26 05:22:49;;;;;;;6.53;1.10;;;19.90;64.70;;;;;;5051219;28;20036;-68
2022/07/26 05:25:14;;;;;;;4.03;0.90;;;19.90;64.10;;;;;;5051200;28;20041;-68
2022/07/26 05:27:40;;;;;;;4.55;0.93;;;19.80;63.50;;;;;;5051181;28;20045;-69
2022/07/26 05:30:07;;;;;;;3.65;0.90;;;19.80;63.40;;;;;;5051203;28;20048;-69
2022/07/26 05:32:33;;;;;;;3.03;0.80;;;19.80;63.20;;;;;;5051561;28;20167;-69
2022/07/26 05:34:58;;;;;;;4.25;1.00;;;19.80;63.20;;;;;;5051176;28;20057;-68
2022/07/26 05:37:24;;;;;;;2.95;0.80;;;19.80;63.20;;;;;;5052259;28;20056;-68
2022/07/26 05:39:50;;;;;;;4.00;1.00;;;19.80;62.90;;;;;;5051326;28;20394;-68
2022/07/26 05:42:15;;;;;;;3.03;0.85;;;19.80;62.90;;;;;;5052505;28;20486;-68
2022/07/26 05:44:41;;;;;;;2.00;0.43;;;19.80;62.90;;;;;;5052435;28;20090;-68
2022/07/26 05:47:07;;;;;;;2.47;0.88;;;19.80;63.00;;;;;;5052369;28;20047;-68
2022/07/26 05:49:33;;;;;;;3.65;0.80;;;19.80;63.00;;;;;;5034512;28;20041;-69
2022/07/26 05:51:58;;;;;;;3.90;0.90;;;19.70;63.10;;;;;;5050868;28;20049;-68
2022/07/26 05:54:24;;;;;;;3.92;0.82;;;19.70;63.10;;;;;;5050915;28;20383;-68
2022/07/26 05:56:50;;;;;;;3.60;1.02;;;19.70;62.90;;;;;;5051141;28;20379;-68
2022/07/26 05:59:15;;;;;;;4.80;1.10;;;19.70;62.80;;;;;;5052793;28;20406;-69
2022/07/26 06:01:41;;;;;;;3.38;0.70;;;19.70;62.70;;;;;;5054770;28;20568;-68
2022/07/26 06:04:07;;;;;;;6.45;0.73;;;19.70;62.70;;;;;;5055865;28;20048;-68
2022/07/26 06:06:33;;;;;;;3.33;0.77;;;19.70;63.00;;;;;;5054848;28;20083;-68
2022/07/26 06:08:59;;;;;;;1.98;0.60;;;19.70;62.60;;;;;;5056032;28;20072;-68
2022/07/26 06:11:24;;;;;;;2.72;0.82;;;19.70;62.70;;;;;;5055927;28;20040;-68
2022/07/26 06:13:50;;;;;;;3.78;0.88;;;19.70;62.90;;;;;;5054504;28;20383;-68
2022/07/26 06:16:16;;;;;;;1.90;0.63;;;19.70;63.00;;;;;;5054446;28;20040;-68
2022/07/26 06:18:42;;;;;;;3.42;0.60;;;19.60;63.10;;;;;;5054263;28;20041;-68
2022/07/26 06:21:08;;;;;;;2.83;0.70;;;19.60;62.90;;;;;;5054494;28;20072;-68
2022/07/26 06:23:33;;;;;;;2.53;0.60;;;19.70;62.70;;;;;;5054529;28;20128;-68
2022/07/26 06:25:59;;;;;;;6.10;0.90;;;19.60;62.80;;;;;;5055505;28;20049;-67
2022/07/26 06:28:25;;;;;;;4.32;0.80;;;19.60;62.80;;;;;;5054192;28;20048;-67
2022/07/26 06:30:50;;;;;;;4.75;0.80;;;19.70;62.70;;;;;;5055405;28;20115;-67
2022/07/26 06:33:17;;;;;;;1.95;0.63;;;19.70;62.70;;;;;;5054074;28;20044;-67
2022/07/26 06:35:42;;;;;;;2.65;0.73;;;19.60;62.60;;;;;;5054374;28;20459;-67
2022/07/26 06:38:08;;;;;;;4.38;0.57;;;19.60;62.80;;;;;;5053885;28;20045;-67
2022/07/26 06:40:34;;;;;;;3.63;0.80;;;19.70;63.00;;;;;;5054076;28;20051;-67
2022/07/26 06:43:00;;;;;;;4.28;0.82;;;19.70;63.00;;;;;;5054282;28;20041;-67
2022/07/26 06:45:27;;;;;;;4.20;0.55;;;19.70;63.00;;;;;;5053878;28;20521;-67
2022/07/26 06:47:52;;;;;;;4.28;0.95;;;19.70;63.10;;;;;;5053828;28;20080;-67
2022/07/26 06:50:18;;;;;;;5.00;0.55;;;19.70;62.90;;;;;;5053703;28;20072;-68
2022/07/26 06:52:44;;;;;;;3.80;0.68;;;19.70;62.30;;;;;;5053767;28;20062;-69
2022/07/26 06:55:09;;;;;;;4.63;0.57;;;19.70;62.20;;;;;;5053670;28;20041;-69
2022/07/26 06:57:35;;;;;;;3.42;0.55;;;19.70;61.80;;;;;;5053699;28;20067;-67
2022/07/26 07:00:04;;;;;;;3.67;0.60;;;19.70;61.70;;;;;;5053868;28;20045;-67
2022/07/26 07:02:29;;;;;;;2.85;0.50;;;19.70;61.50;;;;;;5053642;28;20044;-68
2022/07/26 07:04:55;;;;;;;1.90;0.55;;;19.60;61.20;;;;;;5036748;28;20057;-68
2022/07/26 07:07:21;;;;;;;1.63;0.40;;;19.60;61.60;;;;;;5053532;28;20067;-68
2022/07/26 07:09:46;;;;;;;7.20;1.25;;;19.60;62.00;;;;;;5053190;28;20128;-68
2022/07/26 07:12:14;;;;;;;2.38;0.50;;;19.60;62.50;;;;;;5053046;28;20110;-67
2022/07/26 07:14:40;;;;;;;2.15;0.50;;;19.60;62.80;;;;;;5070103;28;20045;-68
2022/07/26 07:17:07;;;;;;;5.90;0.75;;;19.70;62.70;;;;;;5053441;28;20449;-68
2022/07/26 07:19:35;;;;;;;5.65;0.60;;;19.70;62.70;;;;;;5053243;28;20041;-68
2022/07/26 07:22:02;;;;;;;2.83;0.52;;;19.80;62.70;;;;;;5053208;28;20055;-68
2022/07/26 07:24:27;;;;;;;2.83;0.90;;;19.90;63.00;;;;;;5053224;28;20077;-68
2022/07/26 07:26:53;;;;;;;5.18;0.70;;;19.90;62.70;;;;;;5053271;28;20077;-69
2022/07/26 07:29:19;;;;;;;2.17;0.60;;;20.00;62.30;;;;;;5053144;28;20041;-68
2022/07/26 07:31:46;;;;;;;2.83;0.73;;;20.00;61.40;;;;;;5052977;28;20053;-68
2022/07/26 07:34:13;;;;;;;3.13;0.60;;;20.10;60.60;;;;;;5054306;28;20119;-68
2022/07/26 07:36:38;;;;;;;4.18;0.70;;;20.10;60.40;;;;;;5052963;28;20037;-68
2022/07/26 07:39:04;;;;;;;3.28;0.70;;;20.10;60.50;;;;;;5052826;28;20094;-68
2022/07/26 07:41:33;;;;;;;3.72;0.57;;;20.10;60.50;;;;;;5052828;28;20120;-68
2022/07/26 07:43:59;;;;;;;3.28;0.63;;;20.10;60.60;;;;;;5053049;28;20398;-68
2022/07/26 07:46:25;;;;;;;5.15;0.80;;;20.10;60.70;;;;;;5052663;28;20044;-68
2022/07/26 07:48:51;;;;;;;3.67;0.68;;;20.20;60.20;;;;;;5052620;28;20055;-64
2022/07/26 07:51:16;;;;;;;4.00;0.90;;;20.20;60.20;;;;;;5052874;28;20041;-64
2022/07/26 07:53:42;;;;;;;4.38;0.50;;;20.20;60.30;;;;;;5052654;28;20040;-63
2022/07/26 07:56:07;;;;;;;4.70;0.82;;;20.20;59.80;;;;;;5052571;28;20083;-64
2022/07/26 07:58:33;;;;;;;3.95;0.80;;;20.30;59.80;;;;;;5052630;28;20052;-64
2022/07/26 08:00:59;;;;;;;5.03;0.70;;;20.40;60.10;;;;;;5052357;28;20500;-64
2022/07/26 08:03:24;;;;;;;3.63;0.60;;;20.40;59.60;;;;;;5053576;28;20043;-64
2022/07/26 08:05:50;;;;;;;3.70;0.90;;;20.50;59.90;;;;;;5052603;28;20049;-64
2022/07/26 08:08:17;;;;;;;3.90;0.80;;;20.60;58.80;;;;;;5052356;28;20099;-64
2022/07/26 08:10:43;;;;;;;3.85;0.73;;;20.70;58.30;;;;;;5052614;28;20045;-64
2022/07/26 08:13:08;;;;;;;3.47;0.70;;;20.70;57.80;;;;;;5052381;28;20461;-64
2022/07/26 08:15:34;;;;;;;2.55;0.70;;;20.80;57.70;;;;;;5052304;28;20071;-63
2022/07/26 08:18:00;;;;;;;6.32;0.77;;;20.80;57.50;;;;;;5051878;28;20044;-64
2022/07/26 08:20:25;;;;;;;4.82;0.80;;;20.90;57.60;;;;;;5052267;28;20041;-64
2022/07/26 08:22:52;;;;;;;2.35;0.52;;;21.00;57.40;;;;;;5048894;28;20040;-68
2022/07/26 08:25:18;;;;;;;3.35;0.70;;;21.10;57.40;;;;;;5055509;28;20037;-69
2022/07/26 08:27:44;;;;;;;4.57;0.82;;;21.20;57.30;;;;;;5050464;28;20041;-69
2022/07/26 08:30:10;;;;;;;2.85;0.60;;;21.30;56.40;;;;;;5046174;28;20063;-69
2022/07/26 08:32:35;;;;;;;3.92;0.93;;;21.20;56.30;;;;;;5032232;28;20087;-69
2022/07/26 08:35:02;;;;;;;4.85;0.80;;;21.20;56.00;;;;;;5032042;28;20046;-69
2022/07/26 08:37:27;;;;;;;3.80;0.80;;;21.20;55.70;;;;;;5032319;28;20496;-68
2022/07/26 08:39:53;;;;;;;4.70;0.90;;;21.10;55.40;;;;;;5045237;28;20123;-69
2022/07/26 08:42:23;;;;;;;4.13;0.82;;;21.10;55.40;;;;;;5068271;28;20522;-68
2022/07/26 08:44:50;;;;;;;3.03;0.88;;;21.10;55.70;;;;;;5051654;28;20041;-69
2022/07/26 08:47:19;;;;;;;5.15;1.00;;;21.00;55.80;;;;;;5051941;28;20052;-68
2022/07/26 08:49:45;;;;;;;6.88;0.68;;;21.10;56.10;;;;;;5051315;28;20154;-63
2022/07/26 08:52:12;;;;;;;2.83;0.70;;;21.10;55.90;;;;;;5068447;28;20513;-63
2022/07/26 08:54:50;;;;;;;6.25;1.30;;;21.20;56.10;;;;;;5068324;28;20053;-63
2022/07/26 08:57:16;;;;;;;3.58;0.80;;;21.30;56.30;;;;;;5051675;28;20045;-64
2022/07/26 08:59:42;;;;;;;6.15;1.30;;;21.30;55.20;;;;;;5047821;28;20633;-64
2022/07/26 09:02:11;;;;;;;2.67;0.77;;;21.50;54.90;;;;;;5044195;28;20390;-64
2022/07/26 09:04:43;;;;;;;5.55;1.05;;;21.60;53.40;;;;;;5035121;28;20061;-68
2022/07/26 09:07:15;;;;;;;5.72;1.30;;;21.80;53.10;;;;;;5032428;28;20045;-63
2022/07/26 09:10:08;;;;;;;4.38;1.20;;;21.90;52.80;;;;;;5056963;28;20114;-67
2022/07/26 09:12:35;;;;;;;5.43;0.70;;;22.10;52.70;;;;;;5048642;28;20048;-64
2022/07/26 09:15:04;;;;;;;2.90;0.98;;;22.20;53.10;;;;;;5047661;28;20398;-68
2022/07/26 09:17:43;;;;;;;4.60;0.93;;;22.40;52.90;;;;;;5041299;28;20061;-64
2022/07/26 09:20:24;;;;;;;3.03;0.80;;;22.50;52.70;;;;;;5042294;28;20041;-64
2022/07/26 09:22:59;;;;;;;4.75;1.08;;;22.70;52.20;;;;;;5044568;28;20041;-68
2022/07/26 09:25:26;;;;;;;4.95;1.10;;;22.80;52.00;;;;;;5043378;28;20072;-68
2022/07/26 09:27:52;;;;;;;4.60;1.60;;;22.90;51.50;;;;;;5047132;28;20102;-68
2022/07/26 09:30:18;;;;;;;6.65;1.30;;;22.90;51.50;;;;;;5053341;28;20042;-69
2022/07/26 09:33:04;;;;;;;6.53;1.30;;;22.90;51.40;;;;;;5029803;28;20423;-68
2022/07/26 09:35:36;;;;;;;5.03;1.20;;;23.00;51.20;;;;;;5033255;28;20050;-68
2022/07/26 09:38:11;;;;;;;5.72;1.27;;;23.00;51.40;;;;;;5034373;28;20053;-68
2022/07/26 09:40:37;;;;;;;5.45;1.17;;;23.10;51.50;;;;;;5034722;28;20037;-68
2022/07/26 09:43:05;;;;;;;3.58;0.98;;;23.20;51.30;;;;;;5034514;28;20041;-68
2022/07/26 09:45:33;;;;;;;3.97;0.98;;;23.20;50.80;;;;;;5036501;28;20038;-63
2022/07/26 09:48:00;;;;;;;4.18;1.00;;;23.30;50.60;;;;;;5018418;28;20045;-64
2022/07/26 09:50:35;;;;;;;5.53;1.52;;;23.30;50.30;;;;;;5035102;28;20053;-68
2022/07/26 09:53:10;;;;;;;4.78;0.93;;;23.30;49.60;;;;;;5036371;28;20037;-68
2022/07/26 09:55:54;;;;;;;6.45;0.95;;;23.30;50.00;;;;;;5034880;28;20042;-68
2022/07/26 09:58:21;;;;;;;4.50;1.08;;;23.20;49.30;;;;;;5043481;28;20041;-63
2022/07/26 10:00:47;;;;;;;7.63;1.88;;;23.20;49.40;;;;;;5041170;28;20091;-63
2022/07/26 10:03:13;;;;;;;9.63;2.05;;;23.20;49.40;;;;;;5042555;28;20081;-63
2022/07/26 10:05:40;;;;;;;9.68;1.85;;;23.10;49.70;;;;;;5041647;28;20689;-63
2022/07/26 10:08:06;;;;;;;6.82;1.85;;;23.00;49.90;;;;;;5042441;28;20059;-64
2022/07/26 10:10:46;;;;;;;5.75;1.50;;;23.00;50.20;;;;;;5049992;28;20158;-68
2022/07/26 10:13:12;;;;;;;8.55;1.80;;;22.80;50.20;;;;;;5054424;28;20057;-68
2022/07/26 10:15:46;;;;;;;9.50;2.47;;;22.80;50.50;;;;;;5054484;28;20051;-68
2022/07/26 10:18:36;;;;;;;6.82;1.70;;;22.70;50.30;;;;;;5048367;28;20106;-68
2022/07/26 10:21:28;;;;;;;5.15;1.38;;;22.60;50.30;;;;;;5052822;28;20078;-67
2022/07/26 10:24:01;;;;;;;6.15;1.60;;;22.50;50.30;;;;;;5053343;28;20383;-67
2022/07/26 10:26:30;;;;;;;5.13;1.40;;;22.50;50.20;;;;;;5054508;28;20386;-68
2022/07/26 10:29:15;;;;;;;5.22;1.45;;;22.40;50.60;;;;;;5055492;28;20413;-68
2022/07/26 10:32:01;;;;;;;5.60;1.50;;;22.40;50.20;;;;;;5054252;28;20053;-67
2022/07/26 10:34:31;;;;;;;6.68;1.90;;;22.40;50.40;;;;;;5047143;28;20194;-69
2022/07/26 10:36:59;;;;;;;7.88;1.98;;;22.40;50.10;;;;;;5054225;28;20386;-67
2022/07/26 10:39:25;;;;;;;5.13;1.30;;;22.40;50.50;;;;;;5055255;28;20436;-64
2022/07/26 10:41:59;;;;;;;8.07;2.17;;;22.40;50.80;;;;;;5054312;28;20033;-63
2022/07/26 10:44:30;;;;;;;6.07;1.80;;;22.50;50.50;;;;;;5053870;28;20074;-63
2022/07/26 10:47:00;;;;;;;10.25;1.92;;;22.50;50.40;;;;;;5052863;28;20041;-64
2022/07/26 10:49:40;;;;;;;6.75;1.90;;;22.40;49.30;;;;;;5054136;28;20044;-64
2022/07/26 10:52:28;;;;;;;9.18;1.90;;;22.40;49.40;;;;;;5053712;28;20045;-64
2022/07/26 10:55:02;;;;;;;7.55;1.38;;;22.40;49.50;;;;;;5053730;28;20072;-64
2022/07/26 10:57:54;;;;;;;7.25;1.67;;;22.40;49.40;;;;;;5054936;28;20440;-64
2022/07/26 11:00:25;;;;;;;6.50;1.45;;;22.40;49.50;;;;;;5051771;28;20049;-64
2022/07/26 11:02:58;;;;;;;7.22;2.00;;;22.40;48.90;;;;;;5053614;28;20040;-67
2022/07/26 11:05:33;;;;;;;5.35;1.70;;;22.40;49.00;;;;;;5053440;28;20506;-68
2022/07/26 11:08:08;;;;;;;4.70;1.38;;;22.40;48.80;;;;;;5053754;28;20048;-69
2022/07/26 11:10:39;;;;;;;6.18;1.23;;;22.40;48.50;;;;;;5053499;28;20056;-69
2022/07/26 11:13:12;;;;;;;6.80;1.30;;;22.40;48.50;;;;;;5053486;28;20503;-64
2022/07/26 11:15:41;;;;;;;8.98;1.38;;;22.40;48.80;;;;;;5053486;28;20044;-69
2022/07/26 11:18:34;;;;;;;8.30;1.40;;;22.50;48.10;;;;;;5054605;28;20403;-64
2022/07/26 11:21:14;;;;;;;10.18;1.60;;;22.40;47.30;;;;;;5048633;28;20103;-68
2022/07/26 11:23:45;;;;;;;8.07;1.60;;;22.40;47.80;;;;;;5053287;28;20044;-68
2022/07/26 11:26:24;;;;;;;5.70;1.45;;;22.40;48.20;;;;;;5054454;28;20417;-68
2022/07/26 11:29:00;;;;;;;8.05;1.80;;;22.50;48.20;;;;;;5053154;28;20052;-68
2022/07/26 11:31:40;;;;;;;6.45;1.48;;;22.40;47.80;;;;;;5053070;28;20548;-64
2022/07/26 11:34:14;;;;;;;6.07;1.50;;;22.50;48.30;;;;;;5054561;28;20041;-64
2022/07/26 11:36:42;;;;;;;7.75;1.52;;;22.50;48.10;;;;;;5053008;28;20045;-64
2022/07/26 11:39:13;;;;;;;6.25;1.45;;;22.60;47.50;;;;;;5052952;28;20463;-64
2022/07/26 11:41:43;;;;;;;5.43;1.48;;;22.60;46.90;;;;;;5052929;28;20482;-64
2022/07/26 11:44:16;;;;;;;4.68;1.40;;;22.70;47.00;;;;;;5054123;28;20048;-64
2022/07/26 11:46:50;;;;;;;5.85;1.50;;;22.70;46.90;;;;;;5052852;28;20513;-64
2022/07/26 11:49:23;;;;;;;7.35;1.85;;;22.80;46.90;;;;;;5053993;28;20037;-69
2022/07/26 11:51:54;;;;;;;3.90;1.00;;;22.80;46.10;;;;;;5053189;28;20395;-69
2022/07/26 11:54:22;;;;;;;8.63;1.42;;;22.90;45.50;;;;;;5053864;28;20348;-68
2022/07/26 11:56:56;;;;;;;7.10;1.70;;;22.90;46.40;;;;;;5052337;28;20045;-69
2022/07/26 11:59:28;;;;;;;5.25;1.40;;;22.90;45.90;;;;;;5052553;28;20053;-68
2022/07/26 12:01:55;;;;;;;5.45;1.25;;;23.00;45.10;;;;;;5052551;28;20037;-68
2022/07/26 12:04:22;;;;;;;5.50;1.48;;;23.00;45.60;;;;;;5052308;28;20498;-68
2022/07/26 12:06:48;;;;;;;6.25;1.38;;;23.00;44.90;;;;;;5052479;28;20124;-68
2022/07/26 12:09:27;;;;;;;5.78;1.10;;;23.00;44.90;;;;;;5052302;28;20076;-68
2022/07/26 12:11:53;;;;;;;6.03;1.25;;;23.10;45.30;;;;;;5052319;28;20488;-68
2022/07/26 12:14:30;;;;;;;4.90;1.48;;;23.10;46.00;;;;;;5052331;28;20137;-68
2022/07/26 12:16:56;;;;;;;5.43;1.20;;;23.20;46.30;;;;;;5053642;28;20095;-68
2022/07/26 12:19:28;;;;;;;6.75;1.25;;;23.30;46.10;;;;;;5052094;28;20398;-68
2022/07/26 12:21:58;;;;;;;6.63;1.42;;;23.40;45.50;;;;;;5052158;28;20045;-68
2022/07/26 12:24:52;;;;;;;6.53;1.85;;;23.50;45.70;;;;;;5053475;28;20041;-68
2022/07/26 12:27:20;;;;;;;4.10;1.15;;;23.70;44.80;;;;;;5052346;28;20379;-68
2022/07/26 12:30:11;;;;;;;4.68;1.40;;;23.70;43.40;;;;;;5053215;28;20371;-68
2022/07/26 12:32:40;;;;;;;5.88;1.27;;;23.70;44.50;;;;;;5052078;28;20048;-68
2022/07/26 12:35:28;;;;;;;7.32;1.50;;;23.80;44.00;;;;;;5051895;28;20044;-68
2022/07/26 12:37:54;;;;;;;6.13;1.23;;;23.90;43.80;;;;;;5051866;28;20486;-68
2022/07/26 12:40:25;;;;;;;5.47;1.05;;;23.90;43.60;;;;;;5053018;28;20064;-69
2022/07/26 12:42:58;;;;;;;3.80;1.02;;;24.00;43.50;;;;;;5051731;28;20041;-68
2022/07/26 12:45:29;;;;;;;8.30;1.45;;;24.10;43.00;;;;;;5052951;28;20033;-68
2022/07/26 12:47:57;;;;;;;3.40;0.98;;;24.10;43.10;;;;;;5051850;28;20566;-68
2022/07/26 12:50:25;;;;;;;5.50;1.17;;;24.20;42.90;;;;;;5051858;28;20041;-68